Time;durP1;ratioP1;P1;durP2;ratioP2;P2;SDS_P1;SDS_P2;PMS_P1;PMS_P2;Temp;Humidity;BMP_temperature;BMP_pressure;BME280_temperature;BME280_humidity;BME280_pressure;Samples;Min_cycle;Max_cycle;Signal;HPM_P1;HPM_P2
2022/04/29 00:00:03;;;;;;;5.95;2.40;;;;;;;;;;2097368;28;20147;-45
2022/04/29 00:01:04;;;;;;;;;;;;;;;;;;2097766;28;20045;-46
2022/04/29 00:02:05;;;;;;;6.55;2.63;;;;;;;;;;2097095;28;19947;-45
2022/04/29 00:03:07;;;;;;;5.50;2.78;;;;;;;;;;2097316;28;20051;-45
2022/04/29 00:04:08;;;;;;;4.72;2.38;;;;;;;;;;2097133;28;20040;-46
2022/04/29 00:05:10;;;;;;;7.38;2.80;;;;;;;;;;2097332;28;20044;-46
2022/04/29 00:06:11;;;;;;;3.45;2.35;;;;;;;;;;2097221;28;20055;-46
2022/04/29 00:07:12;;;;;;;4.53;2.15;;;;;;;;;;2097163;28;20503;-45
2022/04/29 00:08:14;;;;;;;4.35;2.40;;;;;;;;;;2097184;28;20056;-45
2022/04/29 00:09:14;;;;;;;4.63;2.70;;;;;;;;;;2097156;28;20052;-45
2022/04/29 00:10:16;;;;;;;5.65;2.55;;;;;;;;;;2097290;28;20106;-45
2022/04/29 00:11:18;;;;;;;;;;;;;;;;;;2097616;28;20128;-45
2022/04/29 00:12:19;;;;;;;5.55;2.83;;;;;;;;;;2097298;28;20023;-46
2022/04/29 00:13:20;;;;;;;3.45;2.30;;;;;;;;;;2097150;28;20124;-45
2022/04/29 00:14:23;;;;;;;5.63;3.30;;;;;;;;;;2096989;28;20045;-45
2022/04/29 00:15:24;;;;;;;5.68;2.63;;;;;;;;;;2097150;28;20128;-46
2022/04/29 00:16:26;;;;;;;4.70;2.20;;;;;;;;;;2097147;28;20490;-45
2022/04/29 00:17:27;;;;;;;5.35;2.60;;;;;;;;;;2097157;28;20052;-45
2022/04/29 00:18:29;;;;;;;4.30;2.57;;;;;;;;;;2095602;28;20055;-46
2022/04/29 00:19:30;;;;;;;4.93;2.55;;;;;;;;;;2096993;28;20133;-45
2022/04/29 00:20:31;;;;;;;5.47;2.40;;;;;;;;;;2097258;28;20049;-45
2022/04/29 00:21:32;;;;;;;4.15;2.65;;;;;;;;;;2097143;28;20076;-45
2022/04/29 00:22:34;;;;;;;4.60;2.67;;;;;;;;;;2098614;28;20127;-45
2022/04/29 00:23:35;;;;;;;3.67;2.45;;;;;;;;;;2098594;28;20211;-45
2022/04/29 00:24:36;;;;;;;6.00;2.60;;;;;;;;;;2098782;28;20090;-58
2022/04/29 00:25:38;;;;;;;3.40;2.42;;;;;;;;;;2098640;28;20087;-57
2022/04/29 00:26:39;;;;;;;3.97;2.67;;;;;;;;;;2098577;28;20127;-57
2022/04/29 00:27:40;;;;;;;4.05;2.58;;;;;;;;;;2098681;28;20048;-58
2022/04/29 00:28:41;;;;;;;4.68;2.47;;;;;;;;;;2098457;28;20049;-58
2022/04/29 00:29:42;;;;;;;5.77;2.30;;;;;;;;;;2098492;28;20067;-58
2022/04/29 00:30:43;;;;;;;4.03;2.00;;;;;;;;;;2098465;28;20483;-58
2022/04/29 00:31:45;;;;;;;4.10;2.40;;;;;;;;;;2098618;28;20044;-58
2022/04/29 00:32:46;;;;;;;5.03;2.08;;;;;;;;;;2098597;28;20044;-58
2022/04/29 00:33:47;;;;;;;4.93;2.20;;;;;;;;;;2098577;28;20047;-57
2022/04/29 00:34:48;;;;;;;5.53;2.50;;;;;;;;;;2098628;28;20109;-58
2022/04/29 00:35:50;;;;;;;5.68;2.50;;;;;;;;;;2098376;28;20635;-58
2022/04/29 00:36:51;;;;;;;4.75;2.45;;;;;;;;;;2098462;28;20409;-58
2022/04/29 00:37:52;;;;;;;4.18;2.50;;;;;;;;;;2098320;28;20123;-58
2022/04/29 00:38:53;;;;;;;;;;;;;;;;;;2099047;28;20483;-58
2022/04/29 00:39:54;;;;;;;4.38;2.75;;;;;;;;;;2098445;28;19920;-58
2022/04/29 00:40:56;;;;;;;3.90;2.50;;;;;;;;;;2098586;28;20127;-58
2022/04/29 00:41:57;;;;;;;5.22;2.40;;;;;;;;;;2098496;28;20063;-58
2022/04/29 00:42:58;;;;;;;6.85;3.28;;;;;;;;;;2098558;28;20055;-58
2022/04/29 00:44:01;;;;;;;4.60;2.38;;;;;;;;;;2098414;28;20051;-58
2022/04/29 00:45:02;;;;;;;4.63;2.50;;;;;;;;;;2098533;28;20447;-58
2022/04/29 00:46:06;;;;;;;4.78;2.55;;;;;;;;;;2098541;28;20079;-59
2022/04/29 00:47:08;;;;;;;4.75;2.42;;;;;;;;;;2098338;28;20476;-58
2022/04/29 00:48:10;;;;;;;3.63;2.22;;;;;;;;;;2098446;28;20526;-59
2022/04/29 00:49:12;;;;;;;6.50;2.53;;;;;;;;;;2098434;28;20049;-59
2022/04/29 00:50:13;;;;;;;;;;;;;;;;;;2098919;28;20055;-59
2022/04/29 00:51:14;;;;;;;4.93;2.60;;;;;;;;;;2098558;28;20428;-58
2022/04/29 00:52:15;;;;;;;4.45;2.92;;;;;;;;;;2098526;28;20060;-58
2022/04/29 00:53:18;;;;;;;5.10;2.72;;;;;;;;;;2098396;28;20079;-58
2022/04/29 00:54:21;;;;;;;5.00;2.80;;;;;;;;;;2098308;28;20135;-58
2022/04/29 00:55:23;;;;;;;4.75;2.78;;;;;;;;;;2098425;28;20052;-58
2022/04/29 00:56:26;;;;;;;6.53;3.03;;;;;;;;;;2098401;28;20258;-58
2022/04/29 00:57:29;;;;;;;6.43;3.10;;;;;;;;;;2098389;28;20051;-57
2022/04/29 00:58:33;;;;;;;5.43;2.80;;;;;;;;;;2098255;28;20444;-57
2022/04/29 00:59:36;;;;;;;7.38;3.35;;;;;;;;;;2098325;28;20055;-58
2022/04/29 01:00:38;;;;;;;5.22;3.08;;;;;;;;;;2098249;28;20490;-58
2022/04/29 01:01:39;;;;;;;;;;;;;;;;;;2098779;28;20071;-58
2022/04/29 01:02:41;;;;;;;5.57;3.25;;;;;;;;;;2098270;28;19920;-58
2022/04/29 01:03:42;;;;;;;6.00;3.17;;;;;;;;;;2098329;28;20091;-57
2022/04/29 01:04:46;;;;;;;6.20;3.38;;;;;;;;;;2098322;28;20047;-58
2022/04/29 01:05:48;;;;;;;7.82;3.30;;;;;;;;;;2098236;28;20040;-58
2022/04/29 01:06:49;;;;;;;4.60;2.90;;;;;;;;;;2098340;28;20186;-58
2022/04/29 01:07:51;;;;;;;7.60;3.30;;;;;;;;;;2098161;28;20559;-58
2022/04/29 01:08:52;;;;;;;5.80;3.22;;;;;;;;;;2098124;28;20482;-58
2022/04/29 01:09:53;;;;;;;6.70;3.70;;;;;;;;;;2098414;28;20127;-57
2022/04/29 01:10:54;;;;;;;6.22;3.05;;;;;;;;;;2098398;28;20285;-58
2022/04/29 01:11:56;;;;;;;6.35;3.13;;;;;;;;;;2098291;28;20564;-58
2022/04/29 01:13:00;;;;;;;7.10;3.58;;;;;;;;;;2098281;28;20136;-57
2022/04/29 01:14:01;;;;;;;4.13;2.72;;;;;;;;;;2098102;28;20055;-58
2022/04/29 01:15:03;;;;;;;7.50;3.77;;;;;;;;;;2100604;28;20045;-58
2022/04/29 01:16:06;;;;;;;6.05;3.33;;;;;;;;;;2106743;28;20044;-58
2022/04/29 01:17:07;;;;;;;5.38;2.75;;;;;;;;;;2106682;28;20055;-58
2022/04/29 01:18:09;;;;;;;6.80;3.15;;;;;;;;;;2106693;28;20056;-58
2022/04/29 01:19:10;;;;;;;6.60;3.22;;;;;;;;;;2099314;28;20080;-58
2022/04/29 01:20:12;;;;;;;6.60;3.00;;;;;;;;;;2098301;28;20047;-58
2022/04/29 01:21:13;;;;;;;5.90;3.10;;;;;;;;;;2098305;28;20049;-58
2022/04/29 01:22:15;;;;;;;5.85;3.17;;;;;;;;;;2098249;28;20052;-58
2022/04/29 01:23:16;;;;;;;5.07;3.35;;;;;;;;;;2098315;28;20148;-58
2022/04/29 01:24:17;;;;;;;4.80;3.13;;;;;;;;;;2098199;28;20101;-57
2022/04/29 01:25:18;;;;;;;4.63;2.77;;;;;;;;;;2098117;28;20559;-58
2022/04/29 01:26:19;;;;;;;4.78;3.08;;;;;;;;;;2098261;28;20066;-58
2022/04/29 01:27:20;;;;;;;6.00;3.33;;;;;;;;;;2098148;28;20079;-57
2022/04/29 01:28:21;;;;;;;4.40;2.85;;;;;;;;;;2098305;28;20139;-58
2022/04/29 01:29:23;;;;;;;4.85;2.97;;;;;;;;;;2098175;28;20055;-58
2022/04/29 01:30:24;;;;;;;5.85;2.55;;;;;;;;;;2098367;28;20068;-57
2022/04/29 01:31:27;;;;;;;6.15;2.72;;;;;;;;;;2098141;28;20136;-58
2022/04/29 01:32:29;;;;;;;6.10;2.78;;;;;;;;;;2097900;28;20048;-58
2022/04/29 01:33:32;;;;;;;6.10;2.42;;;;;;;;;;2097736;28;20440;-58
2022/04/29 01:34:33;;;;;;;3.92;2.45;;;;;;;;;;2098176;28;20055;-58
2022/04/29 01:35:34;;;;;;;2.95;2.03;;;;;;;;;;2098136;28;20483;-58
2022/04/29 01:36:35;;;;;;;4.83;2.80;;;;;;;;;;2098022;28;20078;-58
2022/04/29 01:37:37;;;;;;;5.68;2.40;;;;;;;;;;2098191;28;20132;-58
2022/04/29 01:38:38;;;;;;;4.13;2.60;;;;;;;;;;2097944;28;20463;-58
2022/04/29 01:39:39;;;;;;;5.35;3.15;;;;;;;;;;2097983;28;20044;-58
2022/04/29 01:40:41;;;;;;;4.57;2.25;;;;;;;;;;2098091;28;20102;-59
2022/04/29 01:41:42;;;;;;;5.32;2.65;;;;;;;;;;2098175;28;20040;-58
2022/04/29 01:42:43;;;;;;;6.15;2.78;;;;;;;;;;2098032;28;20523;-58
2022/04/29 01:43:46;;;;;;;6.65;2.90;;;;;;;;;;2098146;28;20556;-58
2022/04/29 01:44:47;;;;;;;4.28;2.60;;;;;;;;;;2098045;28;20119;-58
2022/04/29 01:45:48;;;;;;;5.10;2.75;;;;;;;;;;2098110;28;20052;-58
2022/04/29 01:46:49;;;;;;;4.85;2.53;;;;;;;;;;2098059;28;20078;-58
2022/04/29 01:47:50;;;;;;;4.63;2.45;;;;;;;;;;2098030;28;20049;-58
2022/04/29 01:48:51;;;;;;;5.03;2.95;;;;;;;;;;2098086;28;20264;-57
2022/04/29 01:49:52;;;;;;;4.57;2.72;;;;;;;;;;2097984;28;20044;-59
2022/04/29 01:50:53;;;;;;;7.47;3.05;;;;;;;;;;2098129;28;20040;-58
2022/04/29 01:51:55;;;;;;;4.50;2.60;;;;;;;;;;2098022;28;20454;-58
2022/04/29 01:52:56;;;;;;;4.70;2.40;;;;;;;;;;2098115;28;20201;-58
2022/04/29 01:53:57;;;;;;;4.28;2.47;;;;;;;;;;2097974;28;20045;-58
2022/04/29 01:54:58;;;;;;;5.60;3.15;;;;;;;;;;2097872;28;20451;-58
2022/04/29 01:56:00;;;;;;;6.75;2.65;;;;;;;;;;2098144;28;20098;-59
2022/04/29 01:57:01;;;;;;;4.35;2.75;;;;;;;;;;2098060;28;20127;-58
2022/04/29 01:58:02;;;;;;;4.82;2.55;;;;;;;;;;2098091;28;20299;-58
2022/04/29 01:59:04;;;;;;;4.57;2.25;;;;;;;;;;2097933;28;20059;-58
2022/04/29 02:00:06;;;;;;;4.03;2.60;;;;;;;;;;2098319;28;20498;-46
2022/04/29 02:01:09;;;;;;;5.10;2.55;;;;;;;;;;2097845;28;20401;-46
2022/04/29 02:02:10;;;;;;;4.35;2.75;;;;;;;;;;2098038;28;20052;-45
2022/04/29 02:03:11;;;;;;;5.65;3.33;;;;;;;;;;2097843;28;20048;-45
2022/04/29 02:04:12;;;;;;;4.50;2.60;;;;;;;;;;2097787;28;20560;-45
2022/04/29 02:05:14;;;;;;;5.28;2.40;;;;;;;;;;2098046;28;20048;-46
2022/04/29 02:06:15;;;;;;;4.45;2.72;;;;;;;;;;2098017;28;20131;-46
2022/04/29 02:07:16;;;;;;;4.03;2.38;;;;;;;;;;2097991;28;20056;-46
2022/04/29 02:08:17;;;;;;;3.55;2.25;;;;;;;;;;2097995;28;20093;-45
2022/04/29 02:09:18;;;;;;;3.83;2.70;;;;;;;;;;2097931;28;20041;-45
2022/04/29 02:10:20;;;;;;;5.78;2.97;;;;;;;;;;2098074;28;20070;-59
2022/04/29 02:11:21;;;;;;;6.03;2.60;;;;;;;;;;2097612;28;20436;-58
2022/04/29 02:12:22;;;;;;;4.68;2.72;;;;;;;;;;2097875;28;20127;-58
2022/04/29 02:13:24;;;;;;;7.03;3.03;;;;;;;;;;2097924;28;20048;-57
2022/04/29 02:14:25;;;;;;;4.55;2.88;;;;;;;;;;2097731;28;20461;-58
2022/04/29 02:15:27;;;;;;;8.43;2.72;;;;;;;;;;2097752;28;20055;-59
2022/04/29 02:16:28;;;;;;;5.85;2.60;;;;;;;;;;2097912;28;20060;-58
2022/04/29 02:17:29;;;;;;;7.45;3.70;;;;;;;;;;2097839;28;20448;-58
2022/04/29 02:18:30;;;;;;;5.53;2.67;;;;;;;;;;2097544;28;20127;-58
2022/04/29 02:19:32;;;;;;;4.65;2.70;;;;;;;;;;2097866;28;20400;-57
2022/04/29 02:20:33;;;;;;;6.90;3.08;;;;;;;;;;2098023;28;20059;-58
2022/04/29 02:21:34;;;;;;;4.68;2.70;;;;;;;;;;2097998;28;20139;-58
2022/04/29 02:22:35;;;;;;;5.07;3.00;;;;;;;;;;2097983;28;20053;-58
2022/04/29 02:23:37;;;;;;;8.00;3.25;;;;;;;;;;2097709;28;20541;-58
2022/04/29 02:24:38;;;;;;;4.95;2.88;;;;;;;;;;2097637;28;20428;-58
2022/04/29 02:25:39;;;;;;;4.35;2.70;;;;;;;;;;2097868;28;20044;-58
2022/04/29 02:26:40;;;;;;;6.75;3.53;;;;;;;;;;2097906;28;20143;-58
2022/04/29 02:27:41;;;;;;;7.87;3.30;;;;;;;;;;2097965;28;20050;-58
2022/04/29 02:28:42;;;;;;;8.32;3.88;;;;;;;;;;2097790;28;20377;-58
2022/04/29 02:29:43;;;;;;;5.90;3.80;;;;;;;;;;2097916;28;20485;-58
2022/04/29 02:30:45;;;;;;;;;;;;;;;;;;2098125;28;20132;-58
2022/04/29 02:31:46;;;;;;;7.60;3.92;;;;;;;;;;2097761;28;19927;-58
2022/04/29 02:32:47;;;;;;;6.65;2.83;;;;;;;;;;2097750;28;20052;-58
2022/04/29 02:33:48;;;;;;;7.05;3.17;;;;;;;;;;2097751;28;20094;-57
2022/04/29 02:34:49;;;;;;;5.65;3.45;;;;;;;;;;2097678;28;20173;-58
2022/04/29 02:35:50;;;;;;;8.25;3.45;;;;;;;;;;2097831;28;20529;-58
2022/04/29 02:36:51;;;;;;;5.38;2.85;;;;;;;;;;2097646;28;20047;-58
2022/04/29 02:37:52;;;;;;;6.72;4.10;;;;;;;;;;2097900;28;20218;-58
2022/04/29 02:38:54;;;;;;;7.00;3.70;;;;;;;;;;2097661;28;20044;-57
2022/04/29 02:39:55;;;;;;;7.40;3.85;;;;;;;;;;2097785;28;20053;-58
2022/04/29 02:40:56;;;;;;;5.43;3.08;;;;;;;;;;2097756;28;20079;-58
2022/04/29 02:41:57;;;;;;;6.72;3.70;;;;;;;;;;2097607;28;20480;-58
2022/04/29 02:42:58;;;;;;;5.43;3.67;;;;;;;;;;2097639;28;20053;-58
2022/04/29 02:43:59;;;;;;;11.15;4.20;;;;;;;;;;2097410;28;20105;-58
2022/04/29 02:45:01;;;;;;;7.20;3.80;;;;;;;;;;2096788;28;20066;-57
2022/04/29 02:46:01;;;;;;;7.65;4.05;;;;;;;;;;2097634;28;20130;-58
2022/04/29 02:47:09;;;;;;;9.67;4.80;;;;;;;;;;2097646;28;20406;-58
2022/04/29 02:48:10;;;;;;;8.13;4.57;;;;;;;;;;2097670;28;20360;-58
2022/04/29 02:49:11;;;;;;;9.75;4.53;;;;;;;;;;2097629;28;20512;-58
2022/04/29 02:50:12;;;;;;;8.68;4.07;;;;;;;;;;2097868;28;20048;-45
2022/04/29 02:51:15;;;;;;;8.10;4.95;;;;;;;;;;2097715;28;20045;-45
2022/04/29 02:52:16;;;;;;;11.32;4.78;;;;;;;;;;2097588;28;20146;-46
2022/04/29 02:53:17;;;;;;;9.00;4.57;;;;;;;;;;2097778;28;20127;-46
2022/04/29 02:54:19;;;;;;;10.37;5.07;;;;;;;;;;2097639;28;20489;-46
2022/04/29 02:55:20;;;;;;;9.90;5.40;;;;;;;;;;2097530;28;20127;-46
2022/04/29 02:56:21;;;;;;;7.28;3.97;;;;;;;;;;2097668;28;20179;-47
2022/04/29 02:57:22;;;;;;;11.02;4.93;;;;;;;;;;2097645;28;20129;-46
2022/04/29 02:58:23;;;;;;;8.07;4.57;;;;;;;;;;2097704;28;20048;-46
2022/04/29 02:59:24;;;;;;;9.43;4.97;;;;;;;;;;2097571;28;20072;-46
2022/04/29 03:00:25;;;;;;;8.55;4.82;;;;;;;;;;2097586;28;20077;-46
2022/04/29 03:01:26;;;;;;;7.03;4.13;;;;;;;;;;2097705;28;20127;-46
2022/04/29 03:02:27;;;;;;;8.27;4.57;;;;;;;;;;2097648;28;20048;-46
2022/04/29 03:03:29;;;;;;;7.82;4.50;;;;;;;;;;2097424;28;20072;-46
2022/04/29 03:04:30;;;;;;;7.90;4.28;;;;;;;;;;2097470;28;20053;-46
2022/04/29 03:05:31;;;;;;;9.00;3.70;;;;;;;;;;2097545;28;20047;-46
2022/04/29 03:06:32;;;;;;;8.70;4.78;;;;;;;;;;2097464;28;20127;-46
2022/04/29 03:07:33;;;;;;;6.53;3.80;;;;;;;;;;2100081;28;20508;-46
2022/04/29 03:08:34;;;;;;;5.63;3.80;;;;;;;;;;2105984;28;20534;-46
2022/04/29 03:09:36;;;;;;;6.90;3.40;;;;;;;;;;2105998;28;20052;-45
2022/04/29 03:10:38;;;;;;;6.03;4.28;;;;;;;;;;2105879;28;20048;-46
2022/04/29 03:11:40;;;;;;;7.38;3.72;;;;;;;;;;2106230;28;20130;-58
2022/04/29 03:12:41;;;;;;;7.82;4.78;;;;;;;;;;2105816;28;20051;-58
2022/04/29 03:13:43;;;;;;;8.77;4.20;;;;;;;;;;2105762;28;20131;-58
2022/04/29 03:14:44;;;;;;;7.47;4.18;;;;;;;;;;2105718;28;20379;-58
2022/04/29 03:15:45;;;;;;;8.27;3.77;;;;;;;;;;2106065;28;20040;-58
2022/04/29 03:16:46;;;;;;;9.82;4.68;;;;;;;;;;2105828;28;20562;-57
2022/04/29 03:19:08;;;;;;;7.63;4.28;;;;;;;;;;2099119;28;20083;-57
2022/04/29 03:20:09;;;;;;;8.50;4.13;;;;;;;;;;2097383;28;20070;-58
2022/04/29 03:21:11;;;;;;;9.73;3.67;;;;;;;;;;2097531;28;20123;-58
2022/04/29 03:22:12;;;;;;;9.38;4.60;;;;;;;;;;2097614;28;20123;-58
2022/04/29 03:23:14;;;;;;;8.27;4.43;;;;;;;;;;2097648;28;20044;-58
2022/04/29 03:24:15;;;;;;;7.90;4.15;;;;;;;;;;2097541;28;20131;-46
2022/04/29 03:25:17;;;;;;;7.75;4.35;;;;;;;;;;2097535;28;20048;-46
2022/04/29 03:26:18;;;;;;;;;;;;;;;;;;2097733;28;20588;-45
2022/04/29 03:27:18;;;;;;;6.93;3.72;;;;;;;;;;2097396;28;19920;-46
2022/04/29 03:28:20;;;;;;;7.65;4.10;;;;;;;;;;2097617;28;20559;-46
2022/04/29 03:29:21;;;;;;;8.50;4.68;;;;;;;;;;2097343;28;20101;-46
2022/04/29 03:30:22;;;;;;;12.55;4.93;;;;;;;;;;2097535;28;20131;-46
2022/04/29 03:31:23;;;;;;;7.97;4.13;;;;;;;;;;2097320;28;20055;-46
2022/04/29 03:32:24;;;;;;;13.23;4.88;;;;;;;;;;2097438;28;20049;-46
2022/04/29 03:33:25;;;;;;;8.68;4.05;;;;;;;;;;2097321;28;20048;-46
2022/04/29 03:34:26;;;;;;;7.80;4.60;;;;;;;;;;2097292;28;20432;-46
2022/04/29 03:35:27;;;;;;;8.93;4.50;;;;;;;;;;2097258;28;20463;-45
2022/04/29 03:36:29;;;;;;;9.68;4.43;;;;;;;;;;2097335;28;20056;-46
2022/04/29 03:37:31;;;;;;;8.38;4.38;;;;;;;;;;2097588;28;20127;-46
2022/04/29 03:38:32;;;;;;;7.63;4.38;;;;;;;;;;2097171;28;20135;-46
2022/04/29 03:39:33;;;;;;;9.35;4.32;;;;;;;;;;2097428;28;20179;-46
2022/04/29 03:40:35;;;;;;;9.33;4.17;;;;;;;;;;2097443;28;20701;-45
2022/04/29 03:41:36;;;;;;;5.68;3.67;;;;;;;;;;2097464;28;20078;-46
2022/04/29 03:42:38;;;;;;;9.18;4.07;;;;;;;;;;2097238;28;20041;-47
2022/04/29 03:43:39;;;;;;;7.70;4.75;;;;;;;;;;2097209;28;20052;-47
2022/04/29 03:44:40;;;;;;;8.45;4.53;;;;;;;;;;2097313;28;20043;-46
2022/04/29 03:45:41;;;;;;;7.75;4.35;;;;;;;;;;2097436;28;20509;-46
2022/04/29 03:46:42;;;;;;;8.57;4.25;;;;;;;;;;2097267;28;20044;-45
2022/04/29 03:47:43;;;;;;;8.77;3.90;;;;;;;;;;2097429;28;20146;-46
2022/04/29 03:50:05;;;;;;;10.30;4.57;;;;;;;;;;2097322;28;20409;-46
2022/04/29 03:51:06;;;;;;;10.00;4.40;;;;;;;;;;2097178;28;20098;-46
2022/04/29 03:52:07;;;;;;;8.77;4.20;;;;;;;;;;2097301;28;20060;-46
2022/04/29 03:53:08;;;;;;;9.88;4.45;;;;;;;;;;2097265;28;20049;-46
2022/04/29 03:54:10;;;;;;;7.70;4.55;;;;;;;;;;2097338;28;20123;-46
2022/04/29 03:55:11;;;;;;;7.50;4.22;;;;;;;;;;2097332;28;20097;-47
2022/04/29 03:56:12;;;;;;;8.50;4.18;;;;;;;;;;2098041;28;20044;-46
2022/04/29 03:57:14;;;;;;;8.35;4.10;;;;;;;;;;2098899;28;20055;-46
2022/04/29 03:58:14;;;;;;;8.05;4.38;;;;;;;;;;2098719;28;20093;-46
2022/04/29 03:59:16;;;;;;;8.85;4.65;;;;;;;;;;2098792;28;20056;-46
2022/04/29 04:00:17;;;;;;;9.02;4.07;;;;;;;;;;2098757;28;20049;-46
2022/04/29 04:01:18;;;;;;;8.90;5.25;;;;;;;;;;2098704;28;20123;-46
2022/04/29 04:02:19;;;;;;;7.38;4.03;;;;;;;;;;2098717;28;20098;-46
2022/04/29 04:03:21;;;;;;;6.90;4.38;;;;;;;;;;2098812;28;20052;-46
2022/04/29 04:04:22;;;;;;;6.25;4.18;;;;;;;;;;2105899;28;20044;-46
2022/04/29 04:05:23;;;;;;;5.95;3.58;;;;;;;;;;2107204;28;20504;-46
2022/04/29 04:07:44;;;;;;;5.20;3.92;;;;;;;;;;2107041;28;20612;-46
2022/04/29 04:08:46;;;;;;;7.30;4.32;;;;;;;;;;2107107;28;20044;-46
2022/04/29 04:09:47;;;;;;;7.40;4.35;;;;;;;;;;2107000;28;20123;-47
2022/04/29 04:10:48;;;;;;;8.00;4.18;;;;;;;;;;2107090;28;20511;-46
2022/04/29 04:11:49;;;;;;;6.00;3.95;;;;;;;;;;2107002;28;20044;-46
2022/04/29 04:12:51;;;;;;;8.85;4.15;;;;;;;;;;2107098;28;20054;-46
2022/04/29 04:13:52;;;;;;;9.15;4.32;;;;;;;;;;2106997;28;20119;-46
2022/04/29 04:14:53;;;;;;;7.28;4.53;;;;;;;;;;2106860;28;20065;-46
2022/04/29 04:15:54;;;;;;;8.63;4.03;;;;;;;;;;2106884;28;20108;-46
2022/04/29 04:16:55;;;;;;;8.88;4.90;;;;;;;;;;2107311;28;20312;-46
2022/04/29 04:17:57;;;;;;;8.35;4.90;;;;;;;;;;2107051;28;20145;-46
2022/04/29 04:18:58;;;;;;;6.28;4.00;;;;;;;;;;2101255;28;20493;-46
2022/04/29 04:19:59;;;;;;;10.30;4.75;;;;;;;;;;2098712;28;20140;-45
2022/04/29 04:21:00;;;;;;;8.68;4.55;;;;;;;;;;2098530;28;20413;-46
2022/04/29 04:22:01;;;;;;;9.30;5.05;;;;;;;;;;2098599;28;20101;-46
2022/04/29 04:23:03;;;;;;;10.35;4.38;;;;;;;;;;2098511;28;20152;-46
2022/04/29 04:24:04;;;;;;;7.50;4.18;;;;;;;;;;2098635;28;20135;-46
2022/04/29 04:25:06;;;;;;;11.20;4.68;;;;;;;;;;2098529;28;20486;-46
2022/04/29 04:26:07;;;;;;;8.18;4.53;;;;;;;;;;2098566;28;20448;-46
2022/04/29 04:27:09;;;;;;;8.73;4.87;;;;;;;;;;2098562;28;20048;-46
2022/04/29 04:28:13;;;;;;;;;;;;;;;;;;2099098;28;20041;-46
2022/04/29 04:29:13;;;;;;;6.70;3.58;;;;;;;;;;2098396;28;19920;-46
2022/04/29 04:30:15;;;;;;;6.87;3.27;;;;;;;;;;2098530;28;20045;-46
2022/04/29 04:31:16;;;;;;;5.45;3.47;;;;;;;;;;2098568;28;20149;-46
2022/04/29 04:32:17;;;;;;;9.18;3.72;;;;;;;;;;2098567;28;20374;-46
2022/04/29 04:33:18;;;;;;;6.45;3.15;;;;;;;;;;2098566;28;20580;-46
2022/04/29 04:35:38;;;;;;;7.07;3.10;;;;;;;;;;2098544;28;20417;-46
2022/04/29 04:36:39;;;;;;;6.15;3.38;;;;;;;;;;2098450;28;20120;-46
2022/04/29 04:37:41;;;;;;;7.07;3.37;;;;;;;;;;2098604;28;20464;-45
2022/04/29 04:38:42;;;;;;;5.00;3.38;;;;;;;;;;2098403;28;20071;-46
2022/04/29 04:39:43;;;;;;;4.68;2.80;;;;;;;;;;2098834;28;20392;-59
2022/04/29 04:40:44;;;;;;;6.15;3.17;;;;;;;;;;2098727;28;20064;-58
2022/04/29 04:41:51;;;;;;;5.45;3.40;;;;;;;;;;2098619;28;20054;-58
2022/04/29 04:42:53;;;;;;;5.30;3.45;;;;;;;;;;2098398;28;20089;-58
2022/04/29 04:43:54;;;;;;;5.20;2.67;;;;;;;;;;2098454;28;20140;-58
2022/04/29 04:44:55;;;;;;;7.93;3.13;;;;;;;;;;2098363;28;20136;-58
2022/04/29 04:45:57;;;;;;;4.37;2.83;;;;;;;;;;2098582;28;20040;-59
2022/04/29 04:46:58;;;;;;;4.38;2.65;;;;;;;;;;2098527;28;20052;-59
2022/04/29 04:47:59;;;;;;;5.53;3.15;;;;;;;;;;2098379;28;20098;-59
2022/04/29 04:49:00;;;;;;;4.25;2.45;;;;;;;;;;2098646;28;20182;-45
2022/04/29 04:50:01;;;;;;;4.93;2.53;;;;;;;;;;2098308;28;20048;-46
2022/04/29 04:51:03;;;;;;;5.28;2.50;;;;;;;;;;2098501;28;20135;-45
2022/04/29 04:52:05;;;;;;;5.32;2.67;;;;;;;;;;2098407;28;20131;-45
2022/04/29 04:53:06;;;;;;;3.47;2.28;;;;;;;;;;2098615;28;20131;-59
2022/04/29 04:54:07;;;;;;;4.70;2.67;;;;;;;;;;2098379;28;20420;-59
2022/04/29 04:55:09;;;;;;;5.68;2.88;;;;;;;;;;2098596;28;20131;-46
2022/04/29 04:56:10;;;;;;;5.90;2.70;;;;;;;;;;2098441;28;20123;-46
2022/04/29 04:57:11;;;;;;;6.75;3.00;;;;;;;;;;2098559;28;20498;-46
2022/04/29 04:58:13;;;;;;;5.82;2.90;;;;;;;;;;2098410;28;20052;-46
2022/04/29 04:59:15;;;;;;;7.05;3.30;;;;;;;;;;2098507;28;20094;-45
2022/04/29 05:00:22;;;;;;;3.90;2.83;;;;;;;;;;2098370;28;20047;-46
2022/04/29 05:01:23;;;;;;;3.17;2.47;;;;;;;;;;2098316;28;20127;-46
2022/04/29 05:02:25;;;;;;;6.33;2.47;;;;;;;;;;2098367;28;20504;-46
2022/04/29 05:03:26;;;;;;;4.68;2.72;;;;;;;;;;2098339;28;20590;-45
2022/04/29 05:04:30;;;;;;;5.20;2.70;;;;;;;;;;2098172;28;20044;-45
2022/04/29 05:05:31;;;;;;;6.03;2.50;;;;;;;;;;2098308;28;20129;-45
2022/04/29 05:06:32;;;;;;;5.88;2.72;;;;;;;;;;2098514;28;20132;-45
2022/04/29 05:07:34;;;;;;;6.70;2.70;;;;;;;;;;2097534;28;20139;-45
2022/04/29 05:08:35;;;;;;;5.90;2.50;;;;;;;;;;2098128;28;20059;-45
2022/04/29 05:09:36;;;;;;;5.57;2.40;;;;;;;;;;2098295;28;20131;-45
2022/04/29 05:10:37;;;;;;;5.50;2.50;;;;;;;;;;2098583;28;20044;-58
2022/04/29 05:11:39;;;;;;;3.95;2.58;;;;;;;;;;2098293;28;20508;-59
2022/04/29 05:13:00;;;;;;;6.65;3.13;;;;;;;;;;2098301;28;20044;-59
2022/04/29 05:14:01;;;;;;;3.55;2.28;;;;;;;;;;2098312;28;20051;-59
2022/04/29 05:15:03;;;;;;;4.80;2.17;;;;;;;;;;2098115;28;20473;-59
2022/04/29 05:16:05;;;;;;;3.15;2.42;;;;;;;;;;2098314;28;20160;-59
2022/04/29 05:17:06;;;;;;;4.28;2.10;;;;;;;;;;2098191;28;20056;-59
2022/04/29 05:18:07;;;;;;;4.07;2.03;;;;;;;;;;2098203;28;20048;-59
2022/04/29 05:19:08;;;;;;;3.90;2.13;;;;;;;;;;2097818;28;20047;-60
2022/04/29 05:20:10;;;;;;;5.15;2.15;;;;;;;;;;2098198;28;20144;-58
2022/04/29 05:21:11;;;;;;;3.90;2.20;;;;;;;;;;2098070;28;20131;-59
2022/04/29 05:22:12;;;;;;;3.85;2.20;;;;;;;;;;2098190;28;20055;-59
2022/04/29 05:23:14;;;;;;;5.13;2.17;;;;;;;;;;2098201;28;20048;-59
2022/04/29 05:24:14;;;;;;;4.32;2.28;;;;;;;;;;2098290;28;20353;-58
2022/04/29 05:25:16;;;;;;;2.90;1.83;;;;;;;;;;2098333;28;20052;-59
2022/04/29 05:26:17;;;;;;;5.22;2.28;;;;;;;;;;2098161;28;20074;-59
2022/04/29 05:27:18;;;;;;;3.05;1.92;;;;;;;;;;2098252;28;20054;-59
2022/04/29 05:28:19;;;;;;;2.80;2.22;;;;;;;;;;2098128;28;20368;-59
2022/04/29 05:29:21;;;;;;;2.97;2.03;;;;;;;;;;2098355;28;20480;-45
2022/04/29 05:30:21;;;;;;;7.57;2.72;;;;;;;;;;2097972;28;20064;-45
2022/04/29 05:31:23;;;;;;;3.70;2.15;;;;;;;;;;2098140;28;20055;-45
2022/04/29 05:32:24;;;;;;;3.53;2.13;;;;;;;;;;2098190;28;20083;-45
2022/04/29 05:33:26;;;;;;;3.97;2.38;;;;;;;;;;2098483;28;20055;-45
2022/04/29 05:34:28;;;;;;;3.35;2.20;;;;;;;;;;2098050;28;20048;-45
2022/04/29 05:35:28;;;;;;;3.72;2.03;;;;;;;;;;2098129;28;20128;-45
2022/04/29 05:36:30;;;;;;;4.28;1.92;;;;;;;;;;2098066;28;20048;-45
2022/04/29 05:37:31;;;;;;;3.60;1.83;;;;;;;;;;2098351;28;20047;-45
2022/04/29 05:42:27;;;;;;;3.03;1.70;;;;;;;;;;2098426;28;20136;-59
2022/04/29 05:43:29;;;;;;;2.92;1.92;;;;;;;;;;2097980;28;20131;-59
2022/04/29 05:44:30;;;;;;;5.05;1.90;;;;;;;;;;2098224;28;20041;-59
2022/04/29 05:45:31;;;;;;;2.70;1.80;;;;;;;;;;2098218;28;20151;-59
2022/04/29 05:46:32;;;;;;;9.23;2.10;;;;;;;;;;2098158;28;20044;-59
2022/04/29 05:47:34;;;;;;;3.93;1.87;;;;;;;;;;2098120;28;20049;-59
2022/04/29 05:48:34;;;;;;;2.53;1.60;;;;;;;;;;2097879;28;20285;-59
2022/04/29 05:49:36;;;;;;;5.77;2.10;;;;;;;;;;2098301;28;20110;-46
2022/04/29 05:50:38;;;;;;;2.70;1.77;;;;;;;;;;2097934;28;20056;-45
2022/04/29 05:51:38;;;;;;;2.22;1.60;;;;;;;;;;2098109;28;20128;-45
2022/04/29 05:52:40;;;;;;;2.73;1.77;;;;;;;;;;2098067;28;20098;-45
2022/04/29 05:53:40;;;;;;;5.75;1.70;;;;;;;;;;2098048;28;20047;-45
2022/04/29 05:54:42;;;;;;;3.90;1.70;;;;;;;;;;2098027;28;20066;-45
2022/04/29 05:55:45;;;;;;;3.65;1.63;;;;;;;;;;2098023;28;20045;-46
2022/04/29 05:56:50;;;;;;;4.68;1.92;;;;;;;;;;2104874;28;20402;-46
2022/04/29 05:57:51;;;;;;;3.60;1.95;;;;;;;;;;2106403;28;20068;-45
2022/04/29 05:58:53;;;;;;;4.03;1.75;;;;;;;;;;2106419;28;20097;-45
2022/04/29 05:59:54;;;;;;;3.05;1.55;;;;;;;;;;2106291;28;20431;-46
2022/04/29 06:00:56;;;;;;;;;;;;;;;;;;2107014;28;20520;-46
2022/04/29 06:01:57;;;;;;;2.85;1.70;;;;;;;;;;2106239;28;19927;-47
2022/04/29 06:02:58;;;;;;;3.13;1.90;;;;;;;;;;2106347;28;20044;-46
2022/04/29 06:04:00;;;;;;;3.85;1.77;;;;;;;;;;2106144;28;20055;-46
2022/04/29 06:05:01;;;;;;;3.35;1.85;;;;;;;;;;2106514;28;20059;-45
2022/04/29 06:06:02;;;;;;;3.55;1.50;;;;;;;;;;2106266;28;20109;-45
2022/04/29 06:07:04;;;;;;;5.63;1.90;;;;;;;;;;2106259;28;20553;-46
2022/04/29 06:08:05;;;;;;;3.10;1.77;;;;;;;;;;2106281;28;20127;-45
2022/04/29 06:09:06;;;;;;;5.20;1.70;;;;;;;;;;2106367;28;20090;-46
2022/04/29 06:10:08;;;;;;;3.37;1.70;;;;;;;;;;2106185;28;20490;-46
2022/04/29 06:11:09;;;;;;;2.38;1.45;;;;;;;;;;2106196;28;20048;-48
2022/04/29 06:12:10;;;;;;;3.40;1.70;;;;;;;;;;2106326;28;20097;-46
2022/04/29 06:13:12;;;;;;;4.38;1.58;;;;;;;;;;2106217;28;20044;-46
2022/04/29 06:14:13;;;;;;;4.15;1.90;;;;;;;;;;2106188;28;20130;-46
2022/04/29 06:15:16;;;;;;;3.03;1.47;;;;;;;;;;2106090;28;20090;-46
2022/04/29 06:16:17;;;;;;;3.33;1.73;;;;;;;;;;2106250;28;20132;-46
2022/04/29 06:17:21;;;;;;;3.83;1.80;;;;;;;;;;2106184;28;20090;-46
2022/04/29 06:18:22;;;;;;;2.45;1.42;;;;;;;;;;2105964;28;20371;-60